Time;durP1;ratioP1;P1;durP2;ratioP2;P2;SDS_P1;SDS_P2;PMS_P1;PMS_P2;Temp;Humidity;BMP_temperature;BMP_pressure;BME280_temperature;BME280_humidity;BME280_pressure;Samples;Min_cycle;Max_cycle;Signal;HPM_P1;HPM_P2
2022/07/21 00:02:08;;;;;;;5.82;5.10;;;19.50;99.90;;;;;;5004157;28;20053;-57
2022/07/21 00:04:34;;;;;;;12.30;5.95;;;19.50;99.90;;;;;;5027967;28;20537;-53
2022/07/21 00:07:00;;;;;;;6.93;4.70;;;19.50;99.90;;;;;;5029601;28;20079;-54
2022/07/21 00:09:25;;;;;;;7.38;5.60;;;19.50;99.90;;;;;;5028218;28;20029;-54
2022/07/21 00:11:51;;;;;;;10.38;5.95;;;19.50;99.90;;;;;;5016925;28;20527;-52
2022/07/21 00:14:17;;;;;;;9.02;5.70;;;19.50;99.90;;;;;;5023694;28;20030;-58
2022/07/21 00:16:43;;;;;;;8.00;5.80;;;19.40;99.90;;;;;;5021102;28;20033;-59
2022/07/21 00:19:10;;;;;;;8.68;5.88;;;19.30;99.90;;;;;;4993276;28;20030;-54
2022/07/21 00:21:36;;;;;;;13.55;7.32;;;19.30;99.90;;;;;;5017719;28;20108;-61
2022/07/21 00:24:02;;;;;;;9.50;6.53;;;19.30;99.90;;;;;;5027041;28;20476;-59
2022/07/21 00:26:27;;;;;;;12.05;6.63;;;19.20;99.90;;;;;;5023292;28;20033;-57
2022/07/21 00:28:53;;;;;;;11.20;6.80;;;19.20;99.90;;;;;;5021850;28;20124;-60
2022/07/21 00:31:19;;;;;;;9.27;6.72;;;19.20;99.90;;;;;;5023282;28;20100;-61
2022/07/21 00:33:44;;;;;;;8.85;7.10;;;19.10;99.90;;;;;;5019289;28;20021;-60
2022/07/21 00:36:10;;;;;;;14.77;8.23;;;19.10;99.90;;;;;;5028318;28;20033;-60
2022/07/21 00:38:35;;;;;;;13.90;8.15;;;19.10;99.90;;;;;;5033658;28;20041;-60
2022/07/21 00:41:01;;;;;;;13.85;8.50;;;19.00;99.90;;;;;;5029391;28;20037;-59
2022/07/21 00:43:27;;;;;;;10.23;7.43;;;18.90;99.90;;;;;;5028642;28;20033;-58
2022/07/21 00:45:54;;;;;;;11.90;8.95;;;18.90;99.90;;;;;;5029090;28;20044;-60
2022/07/21 00:48:20;;;;;;;13.73;8.68;;;18.90;99.90;;;;;;5021216;28;20041;-59
2022/07/21 00:50:46;;;;;;;11.38;9.02;;;18.80;99.90;;;;;;5027711;28;20036;-61
2022/07/21 00:53:12;;;;;;;13.60;9.55;;;18.80;99.90;;;;;;5021210;28;20387;-60
2022/07/21 00:55:37;;;;;;;14.35;9.63;;;18.80;99.90;;;;;;5023777;28;20030;-60
2022/07/21 00:58:04;;;;;;;11.90;9.50;;;18.80;99.90;;;;;;5022242;28;20108;-60
2022/07/21 01:00:31;;;;;;;13.50;9.68;;;18.80;99.90;;;;;;5006880;28;20042;-60
2022/07/21 01:02:57;;;;;;;17.73;11.20;;;18.80;99.90;;;;;;5027038;28;20540;-61
2022/07/21 01:05:24;;;;;;;14.68;11.70;;;18.70;99.90;;;;;;5018985;28;20037;-59
2022/07/21 01:07:52;;;;;;;15.93;10.30;;;18.70;99.90;;;;;;5030176;28;20030;-57
2022/07/21 01:10:20;;;;;;;16.98;12.32;;;18.60;99.90;;;;;;5025033;28;20037;-57
2022/07/21 01:12:47;;;;;;;16.05;11.35;;;18.60;99.90;;;;;;5025796;28;20060;-60
2022/07/21 01:15:14;;;;;;;14.20;11.65;;;18.60;99.90;;;;;;5022797;28;20033;-58
2022/07/21 01:17:40;;;;;;;18.15;13.43;;;18.60;99.90;;;;;;5024761;28;20026;-57
2022/07/21 01:20:09;;;;;;;14.88;12.73;;;18.60;99.90;;;;;;5027489;28;20087;-57
2022/07/21 01:22:36;;;;;;;14.63;11.48;;;18.60;99.90;;;;;;5027110;28;20072;-60
2022/07/21 01:25:03;;;;;;;16.05;12.57;;;18.60;99.90;;;;;;5028173;28;20053;-60
2022/07/21 01:27:28;;;;;;;22.80;14.00;;;18.60;99.90;;;;;;5020332;28;20057;-60
2022/07/21 01:29:55;;;;;;;18.95;14.25;;;18.60;99.90;;;;;;5022426;28;20320;-59
2022/07/21 01:32:21;;;;;;;20.55;13.60;;;18.60;99.90;;;;;;5026387;28;20100;-60
2022/07/21 01:34:47;;;;;;;18.52;15.48;;;18.60;99.90;;;;;;5030577;28;20060;-62
2022/07/21 01:37:13;;;;;;;19.60;15.40;;;18.60;99.90;;;;;;5032652;28;20060;-59
2022/07/21 01:42:23;;;;;;;28.73;14.60;;;18.40;99.90;;;;;;5032906;28;20083;-60
2022/07/21 01:44:49;;;;;;;22.70;16.38;;;18.40;99.90;;;;;;5031744;28;20430;-60
2022/07/21 01:47:17;;;;;;;22.85;14.55;;;18.50;99.90;;;;;;5032979;28;20573;-57
2022/07/21 01:49:43;;;;;;;19.60;14.50;;;18.50;99.90;;;;;;5015633;28;20045;-58
2022/07/21 01:52:09;;;;;;;18.27;15.40;;;18.50;99.90;;;;;;5022367;28;20044;-59
2022/07/21 01:54:34;;;;;;;23.65;15.35;;;18.40;99.90;;;;;;5028226;28;20109;-59
2022/07/21 01:57:00;;;;;;;17.50;14.68;;;18.50;99.90;;;;;;5022636;28;20606;-58
2022/07/21 01:59:26;;;;;;;20.00;14.95;;;18.40;99.90;;;;;;5020100;28;20456;-59
2022/07/21 02:01:51;;;;;;;21.38;14.57;;;18.40;99.90;;;;;;5023417;28;20026;-59
2022/07/21 02:04:17;;;;;;;18.38;14.45;;;18.30;99.90;;;;;;5025411;28;20423;-56
2022/07/21 02:06:43;;;;;;;17.98;15.27;;;18.30;99.90;;;;;;5032165;28;20025;-60
2022/07/21 02:09:08;;;;;;;21.42;16.45;;;18.30;99.90;;;;;;5030809;28;20442;-60
2022/07/21 02:11:34;;;;;;;16.60;13.60;;;18.30;99.90;;;;;;5032138;28;20067;-59
2022/07/21 02:14:01;;;;;;;17.48;14.88;;;18.30;99.90;;;;;;5027510;28;20531;-59
2022/07/21 02:16:27;;;;;;;17.92;14.27;;;18.30;99.90;;;;;;5032331;28;20712;-60
2022/07/21 02:18:53;;;;;;;22.58;14.43;;;18.30;99.90;;;;;;5028752;28;20044;-61
2022/07/21 02:21:19;;;;;;;18.73;14.82;;;18.30;99.90;;;;;;5031332;28;20028;-60
2022/07/21 02:23:44;;;;;;;21.45;15.45;;;18.30;99.90;;;;;;5031781;28;20021;-61
2022/07/21 02:26:10;;;;;;;17.48;15.25;;;18.40;99.90;;;;;;5028983;28;20052;-61
2022/07/21 02:28:36;;;;;;;23.02;15.80;;;18.40;99.90;;;;;;5021010;28;20079;-60
2022/07/21 02:31:02;;;;;;;17.95;15.80;;;18.50;99.90;;;;;;5019876;28;20033;-60
2022/07/21 02:33:28;;;;;;;18.67;16.02;;;18.50;99.90;;;;;;5032249;28;20028;-60
2022/07/21 02:35:53;;;;;;;21.75;16.75;;;18.40;99.90;;;;;;5030462;28;20105;-60
2022/07/21 02:38:19;;;;;;;21.45;16.73;;;18.30;99.90;;;;;;5026074;28;20025;-60
2022/07/21 02:40:45;;;;;;;20.15;16.08;;;18.30;99.90;;;;;;5032637;28;20172;-59
2022/07/21 02:43:10;;;;;;;17.13;15.32;;;18.30;99.90;;;;;;5029026;28;20073;-60
2022/07/21 02:45:41;;;;;;;17.25;13.82;;;18.30;99.90;;;;;;5032994;28;20026;-60
2022/07/21 02:48:09;;;;;;;22.38;14.80;;;18.30;99.90;;;;;;5027414;28;20026;-60
2022/07/21 02:50:37;;;;;;;21.65;15.57;;;18.30;99.90;;;;;;5030814;28;20402;-59
2022/07/21 02:53:22;;;;;;;19.65;14.57;;;18.20;99.90;;;;;;5023410;28;20068;-58
2022/07/21 02:55:49;;;;;;;21.25;15.45;;;18.10;99.90;;;;;;5012921;28;20034;-56
2022/07/21 02:58:19;;;;;;;16.30;12.80;;;18.20;99.90;;;;;;5027673;28;20487;-59
2022/07/21 03:00:49;;;;;;;17.17;13.95;;;18.20;99.90;;;;;;5025736;28;20029;-57
2022/07/21 03:03:15;;;;;;;19.52;15.15;;;18.20;99.90;;;;;;5030157;28;20028;-57
2022/07/21 03:05:41;;;;;;;15.85;14.07;;;18.20;99.90;;;;;;5025899;28;20029;-60
2022/07/21 03:08:07;;;;;;;20.65;13.82;;;18.20;99.90;;;;;;5026252;28;20104;-58
2022/07/21 03:10:33;;;;;;;20.77;13.93;;;18.10;99.90;;;;;;5032456;28;20025;-58
2022/07/21 03:12:59;;;;;;;21.10;14.52;;;18.10;99.90;;;;;;5027303;28;20084;-60
2022/07/21 03:15:25;;;;;;;19.85;14.43;;;18.10;99.90;;;;;;5026108;28;20030;-59
2022/07/21 03:17:52;;;;;;;19.35;14.65;;;18.10;99.90;;;;;;5028527;28;20506;-58
2022/07/21 03:20:18;;;;;;;20.25;12.40;;;18.10;99.90;;;;;;5030348;28;20033;-60
2022/07/21 03:22:44;;;;;;;23.15;14.57;;;18.10;99.90;;;;;;5032608;28;20449;-59
2022/07/21 03:25:09;;;;;;;17.95;13.48;;;18.10;99.90;;;;;;5030163;28;20483;-57
2022/07/21 03:27:36;;;;;;;17.02;13.73;;;18.20;99.90;;;;;;5024466;28;20033;-60
2022/07/21 03:30:07;;;;;;;19.95;15.48;;;18.20;99.90;;;;;;5029489;28;20124;-60
2022/07/21 03:32:33;;;;;;;19.83;14.45;;;18.20;99.90;;;;;;5025522;28;20112;-58
2022/07/21 03:34:59;;;;;;;20.88;16.13;;;18.10;99.90;;;;;;5028758;28;20071;-59
2022/07/21 03:37:25;;;;;;;21.10;16.23;;;18.10;99.90;;;;;;5029809;28;20021;-60
2022/07/21 03:39:51;;;;;;;20.80;16.13;;;18.10;99.90;;;;;;5029923;28;20048;-59
2022/07/21 03:42:16;;;;;;;20.70;16.95;;;18.00;99.90;;;;;;5032076;28;20025;-60
2022/07/21 03:44:42;;;;;;;22.80;16.50;;;18.10;99.90;;;;;;5029695;28;20025;-60
2022/07/21 03:47:08;;;;;;;22.52;17.55;;;18.10;99.90;;;;;;5024302;28;20087;-60
2022/07/21 03:49:33;;;;;;;25.05;17.35;;;18.10;99.90;;;;;;5027002;28;20102;-59
2022/07/21 03:51:59;;;;;;;26.58;18.05;;;18.10;99.90;;;;;;5024185;28;20062;-58
2022/07/21 03:54:24;;;;;;;24.80;18.00;;;18.10;99.90;;;;;;5020740;28;20025;-60
2022/07/21 03:56:50;;;;;;;27.50;19.67;;;18.10;99.90;;;;;;5019003;28;20044;-60
2022/07/21 03:59:17;;;;;;;28.25;19.10;;;18.20;99.90;;;;;;5028566;28;20033;-58
2022/07/21 04:01:43;;;;;;;31.65;22.67;;;18.10;99.90;;;;;;5025594;28;20557;-58
2022/07/21 04:04:09;;;;;;;29.10;23.35;;;18.10;99.90;;;;;;5026218;28;20033;-59
2022/07/21 04:06:35;;;;;;;32.28;23.45;;;18.10;99.90;;;;;;5029426;28;20033;-57
2022/07/21 04:09:01;;;;;;;30.65;22.08;;;18.10;99.90;;;;;;5021239;28;20029;-58
2022/07/21 04:11:26;;;;;;;30.98;24.40;;;18.10;99.90;;;;;;5027001;28;20037;-59
2022/07/21 04:13:52;;;;;;;31.70;22.50;;;18.10;99.90;;;;;;5030884;28;20039;-58
2022/07/21 04:16:17;;;;;;;36.97;22.25;;;18.20;99.90;;;;;;5028659;28;20120;-58
2022/07/21 04:18:43;;;;;;;28.45;20.70;;;18.20;99.90;;;;;;5022226;28;20075;-60
2022/07/21 04:21:09;;;;;;;28.10;20.27;;;18.20;99.90;;;;;;5031600;28;20021;-60
2022/07/21 04:23:34;;;;;;;26.75;21.30;;;18.20;99.90;;;;;;5028333;28;20505;-61
2022/07/21 04:26:00;;;;;;;24.33;19.67;;;18.20;99.90;;;;;;5025600;28;20029;-60
2022/07/21 04:28:26;;;;;;;25.38;20.50;;;18.30;99.90;;;;;;5013646;28;20557;-58
2022/07/21 04:30:51;;;;;;;25.33;19.17;;;18.30;99.90;;;;;;5028919;28;20034;-60
2022/07/21 04:33:17;;;;;;;26.25;20.33;;;18.30;99.90;;;;;;5017179;28;20025;-61
2022/07/21 04:35:42;;;;;;;24.40;20.48;;;18.40;99.90;;;;;;5030873;28;20649;-58
2022/07/21 04:38:11;;;;;;;23.67;18.48;;;18.40;99.90;;;;;;5028474;28;20479;-60
2022/07/21 04:40:37;;;;;;;23.48;17.92;;;18.40;99.90;;;;;;5039109;23;20430;-58
2022/07/21 04:43:02;;;;;;;21.65;18.77;;;18.50;99.90;;;;;;5023575;28;20021;-55
2022/07/21 04:45:28;;;;;;;20.50;16.88;;;18.70;99.90;;;;;;5030438;28;20022;-57
2022/07/21 04:47:55;;;;;;;20.77;16.98;;;18.90;99.90;;;;;;5022677;28;20521;-58
2022/07/21 04:50:23;;;;;;;20.05;16.15;;;18.90;99.90;;;;;;5025460;28;20045;-55
2022/07/21 04:52:49;;;;;;;23.65;17.05;;;19.00;99.90;;;;;;5028979;28;20102;-56
2022/07/21 04:55:16;;;;;;;19.30;16.20;;;19.00;99.90;;;;;;5028061;28;20035;-56
2022/07/21 04:57:44;;;;;;;18.02;14.48;;;19.10;99.90;;;;;;5021710;28;20423;-58
2022/07/21 05:00:12;;;;;;;17.30;14.63;;;19.30;99.90;;;;;;5029925;28;20061;-57
2022/07/21 05:02:38;;;;;;;17.75;14.52;;;19.50;99.90;;;;;;5002519;28;20060;-58
2022/07/21 05:05:05;;;;;;;26.00;15.65;;;19.60;99.90;;;;;;5025098;28;20052;-59
2022/07/21 05:07:31;;;;;;;21.20;15.93;;;19.50;99.90;;;;;;5019385;28;20034;-57
2022/07/21 05:09:58;;;;;;;19.05;15.88;;;19.50;99.90;;;;;;5027499;28;20037;-56
2022/07/21 05:12:24;;;;;;;17.63;14.60;;;19.80;99.90;;;;;;5030117;28;20030;-58
2022/07/21 05:14:50;;;;;;;18.75;15.82;;;19.80;99.90;;;;;;5026094;28;20021;-58
2022/07/21 05:17:16;;;;;;;18.60;15.60;;;19.70;99.90;;;;;;5026505;28;20026;-59
2022/07/21 05:19:43;;;;;;;17.00;13.38;;;19.50;99.90;;;;;;5029532;28;20049;-58
2022/07/21 05:22:09;;;;;;;15.85;14.13;;;19.60;99.90;;;;;;5028202;28;20530;-57
2022/07/21 05:24:34;;;;;;;19.00;15.68;;;19.60;99.90;;;;;;5029179;28;20026;-58
2022/07/21 05:27:00;;;;;;;17.88;13.45;;;19.70;99.90;;;;;;5024558;28;20075;-54
2022/07/21 05:29:25;;;;;;;15.98;13.93;;;19.60;99.90;;;;;;5027358;28;20033;-58
2022/07/21 05:31:51;;;;;;;15.88;13.20;;;19.60;99.90;;;;;;5027294;28;20026;-59
2022/07/21 05:34:16;;;;;;;16.92;13.38;;;19.50;99.90;;;;;;5024982;28;20095;-58
2022/07/21 05:36:42;;;;;;;15.43;11.70;;;19.60;99.90;;;;;;5028065;28;20033;-58
2022/07/21 05:39:08;;;;;;;12.68;11.15;;;19.60;99.90;;;;;;5028410;28;20033;-57
2022/07/21 05:41:33;;;;;;;14.85;11.23;;;19.70;99.90;;;;;;5027742;28;20491;-57
2022/07/21 05:43:59;;;;;;;15.40;10.75;;;19.50;99.90;;;;;;5029484;28;20025;-58
2022/07/21 05:46:24;;;;;;;16.15;12.02;;;19.40;99.90;;;;;;5027599;28;20075;-58
2022/07/21 05:48:52;;;;;;;13.75;11.38;;;19.30;99.90;;;;;;5017232;28;20032;-57
2022/07/21 05:51:18;;;;;;;15.48;12.18;;;19.30;99.90;;;;;;5019984;28;20514;-58
2022/07/21 05:53:43;;;;;;;16.60;11.13;;;19.30;99.90;;;;;;5026317;28;20029;-57
2022/07/21 05:56:09;;;;;;;13.00;11.32;;;19.10;99.90;;;;;;5027932;28;20104;-56
2022/07/21 05:58:35;;;;;;;14.45;11.80;;;19.10;99.90;;;;;;5015433;28;20021;-58
2022/07/21 06:01:09;;;;;;;14.93;11.02;;;19.00;99.90;;;;;;5017084;28;20025;-59
2022/07/21 06:03:41;;;;;;;19.52;11.27;;;19.00;99.90;;;;;;5014023;28;20048;-58
2022/07/21 06:06:07;;;;;;;17.90;10.18;;;18.80;99.90;;;;;;5022624;28;20522;-59
2022/07/21 06:08:33;;;;;;;12.18;10.25;;;18.80;99.90;;;;;;5026293;28;20531;-58
2022/07/21 06:10:59;;;;;;;14.70;10.00;;;18.70;99.90;;;;;;5029620;28;20124;-59
2022/07/21 06:13:24;;;;;;;16.73;10.90;;;18.70;99.90;;;;;;5025318;28;20442;-58
2022/07/21 06:15:50;;;;;;;16.92;10.85;;;18.70;99.90;;;;;;5026596;28;21697;-57
2022/07/21 06:18:15;;;;;;;14.73;10.90;;;18.70;99.90;;;;;;5032312;28;20072;-58
2022/07/21 06:20:42;;;;;;;15.30;11.18;;;18.70;99.90;;;;;;5030437;28;20075;-57
2022/07/21 06:23:08;;;;;;;13.82;10.85;;;18.70;99.90;;;;;;5017461;28;20660;-57
2022/07/21 06:25:33;;;;;;;13.43;10.18;;;18.70;99.90;;;;;;5029355;28;20064;-56
2022/07/21 06:27:59;;;;;;;15.35;10.30;;;18.70;99.90;;;;;;5026597;28;20025;-58
2022/07/21 06:30:25;;;;;;;15.60;11.05;;;18.60;99.90;;;;;;5032241;28;20486;-57
2022/07/21 06:32:50;;;;;;;13.63;11.15;;;18.60;99.90;;;;;;5028765;28;20022;-59
2022/07/21 06:35:16;;;;;;;15.50;10.35;;;18.50;99.90;;;;;;5031680;28;20021;-59
2022/07/21 06:37:45;;;;;;;13.13;9.70;;;18.50;99.90;;;;;;5022150;28;20089;-58
2022/07/21 06:40:12;;;;;;;14.25;10.98;;;18.50;99.90;;;;;;5032439;28;20124;-54
2022/07/21 06:42:37;;;;;;;13.38;9.82;;;18.50;99.90;;;;;;5029281;28;20113;-57
2022/07/21 06:45:04;;;;;;;10.73;9.25;;;18.60;99.90;;;;;;5032045;28;20113;-58
2022/07/21 06:47:29;;;;;;;14.15;9.25;;;18.60;99.90;;;;;;5029871;28;20025;-58
2022/07/21 06:49:55;;;;;;;15.48;9.52;;;18.70;99.90;;;;;;5029803;28;20029;-58
2022/07/21 06:52:21;;;;;;;13.55;9.25;;;18.90;99.90;;;;;;5026413;28;20104;-58
2022/07/21 06:54:46;;;;;;;9.05;8.00;;;19.00;99.90;;;;;;5029658;28;20037;-58
2022/07/21 06:57:13;;;;;;;11.85;8.93;;;19.30;99.90;;;;;;5031403;28;20057;-58
2022/07/21 06:59:39;;;;;;;10.07;7.95;;;19.70;99.90;;;;;;5027367;28;20426;-57
2022/07/21 07:02:04;;;;;;;10.30;7.15;;;20.00;99.90;;;;;;5035516;28;20028;-57
2022/07/21 07:04:30;;;;;;;10.52;7.45;;;20.60;99.90;;;;;;5021659;28;20064;-58
2022/07/21 07:06:56;;;;;;;9.73;5.80;;;21.40;99.90;;;;;;5025516;28;20496;-58
2022/07/21 07:09:22;;;;;;;10.02;5.28;;;21.90;99.90;;;;;;5032104;28;20026;-55
2022/07/21 07:11:50;;;;;;;10.00;6.18;;;22.10;99.90;;;;;;5030355;28;20383;-54
2022/07/21 07:14:16;;;;;;;7.85;5.57;;;22.10;99.90;;;;;;5029930;28;20025;-54
2022/07/21 07:16:42;;;;;;;6.90;5.95;;;22.40;99.90;;;;;;5027060;28;20017;-52
2022/07/21 07:19:07;;;;;;;7.75;5.32;;;22.30;99.90;;;;;;5026735;28;20647;-56
2022/07/21 07:21:33;;;;;;;9.15;5.60;;;22.30;99.90;;;;;;5024114;28;20555;-56
2022/07/21 07:23:58;;;;;;;11.98;5.57;;;22.30;99.90;;;;;;5029909;28;20025;-58
2022/07/21 07:26:24;;;;;;;7.72;5.13;;;22.40;99.90;;;;;;5024088;28;20037;-57
2022/07/21 07:28:50;;;;;;;8.82;5.72;;;22.30;99.90;;;;;;5030605;28;20037;-58
2022/07/21 07:31:15;;;;;;;7.82;4.85;;;22.10;99.90;;;;;;5031846;28;20028;-57
2022/07/21 07:33:41;;;;;;;6.20;4.50;;;22.00;99.90;;;;;;5028589;28;20024;-57
2022/07/21 07:36:10;;;;;;;6.20;4.60;;;21.90;99.90;;;;;;5026601;28;20036;-58
2022/07/21 07:38:36;;;;;;;7.03;4.43;;;22.10;99.90;;;;;;5012790;28;20072;-57
2022/07/21 07:41:02;;;;;;;9.82;4.93;;;22.40;99.90;;;;;;5029295;28;20045;-56
2022/07/21 07:43:27;;;;;;;7.57;5.15;;;22.50;99.90;;;;;;5029523;28;20027;-53
2022/07/21 07:45:53;;;;;;;9.95;4.90;;;22.30;99.90;;;;;;5020752;28;20435;-57
2022/07/21 07:48:19;;;;;;;5.53;4.35;;;22.30;99.90;;;;;;5021054;28;20030;-58
2022/07/21 07:50:44;;;;;;;7.45;4.18;;;22.20;99.90;;;;;;5029843;28;20022;-58
2022/07/21 07:53:10;;;;;;;5.18;3.70;;;22.50;99.90;;;;;;5025768;28;20837;-58
2022/07/21 07:55:36;;;;;;;6.70;3.40;;;23.50;99.90;;;;;;5021581;28;20025;-57
2022/07/21 07:58:01;;;;;;;7.65;3.72;;;24.80;99.90;;;;;;5025719;28;20100;-57
2022/07/21 08:00:27;;;;;;;5.03;3.70;;;26.60;99.90;;;;;;5024413;28;20037;-58
2022/07/21 08:02:53;;;;;;;4.38;3.03;;;27.90;99.90;;;;;;5023474;28;20103;-58
2022/07/21 08:05:18;;;;;;;5.40;3.72;;;27.90;99.50;;;;;;5009019;28;20115;-59
2022/07/21 08:07:44;;;;;;;5.00;3.20;;;28.30;98.70;;;;;;5020796;28;20033;-59
2022/07/21 08:10:12;;;;;;;4.10;2.60;;;28.70;96.70;;;;;;5019279;28;20068;-59
2022/07/21 08:12:38;;;;;;;5.53;3.42;;;30.30;94.60;;;;;;5021155;28;20479;-58
2022/07/21 08:15:05;;;;;;;5.22;3.72;;;30.60;93.70;;;;;;5012474;28;20030;-59
2022/07/21 08:17:31;;;;;;;5.28;3.72;;;31.60;92.10;;;;;;5028140;28;20728;-58
2022/07/21 08:19:57;;;;;;;5.82;3.47;;;30.60;89.40;;;;;;5025488;28;20060;-59
2022/07/21 08:22:22;;;;;;;4.28;3.58;;;29.00;91.90;;;;;;5027002;28;20395;-58
2022/07/21 08:24:48;;;;;;;4.47;3.40;;;29.20;93.90;;;;;;5025720;28;20040;-57
2022/07/21 08:27:14;;;;;;;8.70;3.33;;;29.00;94.20;;;;;;5021716;28;20037;-59
2022/07/21 08:29:39;;;;;;;3.28;2.97;;;29.70;93.80;;;;;;5020603;28;20040;-59
2022/07/21 08:32:05;;;;;;;6.75;3.40;;;29.00;91.70;;;;;;5020703;28;20032;-58
2022/07/21 08:34:31;;;;;;;4.15;3.33;;;28.70;94.30;;;;;;5024981;28;20029;-52
2022/07/21 08:36:57;;;;;;;3.70;3.28;;;29.80;92.10;;;;;;5027241;28;20106;-59
2022/07/21 08:39:23;;;;;;;4.15;3.60;;;29.10;92.70;;;;;;5021998;28;20685;-55
2022/07/21 08:41:50;;;;;;;4.72;3.60;;;29.60;93.20;;;;;;5026718;28;20028;-59
2022/07/21 08:44:16;;;;;;;3.70;3.13;;;29.20;91.60;;;;;;5028493;28;20033;-57
2022/07/21 08:46:42;;;;;;;5.13;3.40;;;29.10;93.10;;;;;;5030473;28;20029;-58
2022/07/21 08:49:09;;;;;;;4.55;3.20;;;27.70;95.00;;;;;;5025501;28;20114;-57
2022/07/21 08:51:35;;;;;;;6.13;4.28;;;26.90;95.10;;;;;;5030001;28;20113;-59
2022/07/21 08:54:02;;;;;;;7.80;3.35;;;26.70;97.30;;;;;;5027779;28;20543;-59
2022/07/21 08:56:28;;;;;;;5.57;3.15;;;26.90;98.00;;;;;;5030199;28;20033;-58
2022/07/21 08:58:54;;;;;;;3.90;3.05;;;27.00;96.90;;;;;;5025810;28;20029;-55
2022/07/21 09:01:23;;;;;;;5.68;3.40;;;26.50;97.00;;;;;;5028447;28;20476;-58
2022/07/21 09:03:52;;;;;;;5.03;3.53;;;26.10;98.20;;;;;;5024071;28;20044;-57
2022/07/21 09:06:18;;;;;;;4.70;3.80;;;25.90;97.30;;;;;;5015110;28;20402;-56
2022/07/21 09:08:49;;;;;;;5.03;3.65;;;25.70;98.10;;;;;;5016837;28;20030;-58
2022/07/21 09:11:24;;;;;;;6.57;3.72;;;25.70;98.90;;;;;;5028398;28;20061;-58
2022/07/21 09:14:18;;;;;;;6.60;4.18;;;25.60;98.30;;;;;;5016268;28;20054;-52
2022/07/21 09:16:46;;;;;;;5.65;3.60;;;25.20;99.30;;;;;;5017852;28;20541;-55
2022/07/21 09:19:23;;;;;;;7.18;3.90;;;25.00;99.90;;;;;;5027784;28;20037;-55
2022/07/21 09:21:50;;;;;;;5.05;3.88;;;24.80;99.90;;;;;;5018908;28;20811;-58
2022/07/21 09:24:17;;;;;;;10.18;4.07;;;24.80;99.90;;;;;;5029875;28;20037;-57
2022/07/21 09:27:04;;;;;;;9.38;3.70;;;24.80;99.90;;;;;;5028358;28;20029;-58
2022/07/21 09:29:58;;;;;;;5.53;3.38;;;25.00;99.90;;;;;;5012923;28;20033;-56
2022/07/21 09:32:30;;;;;;;6.43;3.15;;;25.80;99.90;;;;;;5017797;28;20041;-57
2022/07/21 09:35:10;;;;;;;4.88;3.60;;;26.90;97.40;;;;;;5028838;28;20109;-58
2022/07/21 09:37:37;;;;;;;4.38;2.97;;;27.20;97.30;;;;;;5023711;28;20108;-59
2022/07/21 09:40:07;;;;;;;4.68;3.30;;;28.20;96.30;;;;;;5026503;28;20501;-57
2022/07/21 09:42:41;;;;;;;3.88;2.90;;;28.30;94.30;;;;;;5021145;28;20065;-58
2022/07/21 09:45:09;;;;;;;7.25;3.40;;;27.10;93.70;;;;;;5019307;28;20033;-58
2022/07/21 09:47:38;;;;;;;5.78;2.97;;;26.90;95.00;;;;;;5015632;28;20033;-59
2022/07/21 09:50:08;;;;;;;5.35;3.00;;;27.20;96.20;;;;;;5021797;28;20246;-56
2022/07/21 09:52:42;;;;;;;5.35;3.03;;;27.00;94.40;;;;;;5021059;28;20014;-51
2022/07/21 09:55:13;;;;;;;4.93;2.80;;;26.80;94.60;;;;;;5017438;28;20049;-58
2022/07/21 09:57:39;;;;;;;7.55;4.00;;;26.70;95.80;;;;;;5023985;28;20368;-58
2022/07/21 10:00:10;;;;;;;7.00;3.28;;;27.40;94.70;;;;;;5029907;28;20025;-58
2022/07/21 10:02:36;;;;;;;6.07;3.42;;;27.30;95.30;;;;;;5027122;28;20140;-58
2022/07/21 10:05:07;;;;;;;7.10;3.38;;;27.00;93.80;;;;;;5030409;28;20104;-59
2022/07/21 10:07:36;;;;;;;5.38;3.30;;;26.80;93.50;;;;;;5032286;28;20041;-57
2022/07/21 10:10:03;;;;;;;5.15;3.38;;;26.80;92.60;;;;;;5029840;28;20106;-58
2022/07/21 10:12:29;;;;;;;7.55;3.70;;;26.60;93.10;;;;;;5027322;28;20034;-58
2022/07/21 10:14:55;;;;;;;7.13;3.13;;;26.30;92.90;;;;;;5020766;28;20042;-56
2022/07/21 10:17:22;;;;;;;5.85;3.63;;;26.20;93.80;;;;;;5022350;28;20041;-59
2022/07/21 10:20:07;;;;;;;4.93;3.42;;;25.90;94.00;;;;;;5024170;28;20034;-59
2022/07/21 10:22:54;;;;;;;5.88;3.25;;;25.60;95.10;;;;;;5030003;28;20038;-58
2022/07/21 10:25:21;;;;;;;5.63;3.60;;;25.60;94.70;;;;;;5025138;28;20091;-59
2022/07/21 10:28:23;;;;;;;5.50;3.35;;;25.50;93.90;;;;;;5026926;28;20037;-57
2022/07/21 10:30:50;;;;;;;7.22;3.15;;;25.80;94.40;;;;;;5024667;28;20026;-59
2022/07/21 10:33:19;;;;;;;4.82;3.15;;;26.00;95.50;;;;;;5026289;28;20080;-57
2022/07/21 10:35:49;;;;;;;6.72;3.50;;;26.00;94.10;;;;;;5031788;28;20444;-57
2022/07/21 10:38:31;;;;;;;4.85;3.10;;;26.30;94.10;;;;;;5028778;28;20021;-58
2022/07/21 10:41:03;;;;;;;7.00;3.28;;;26.50;93.40;;;;;;5028903;28;20041;-56
2022/07/21 10:43:28;;;;;;;4.75;3.15;;;26.40;93.00;;;;;;5030759;28;20058;-54
2022/07/21 10:45:55;;;;;;;7.88;4.13;;;26.20;94.40;;;;;;5032655;28;20487;-57
2022/07/21 10:48:37;;;;;;;5.40;3.45;;;25.80;93.50;;;;;;5027247;28;20135;-57
2022/07/21 10:51:08;;;;;;;9.75;3.35;;;25.70;94.40;;;;;;5031366;28;20032;-54
2022/07/21 10:53:34;;;;;;;5.85;3.53;;;25.30;93.90;;;;;;5026787;28;20033;-58
2022/07/21 10:56:00;;;;;;;5.00;3.38;;;25.40;95.20;;;;;;5020448;28;20026;-55
2022/07/21 10:58:27;;;;;;;7.40;3.40;;;25.10;96.00;;;;;;5029976;28;20040;-59
2022/07/21 11:01:04;;;;;;;5.15;3.42;;;25.10;94.70;;;;;;5029290;28;20041;-58
2022/07/21 11:03:31;;;;;;;5.25;3.05;;;25.10;95.80;;;;;;5028413;28;20025;-59
2022/07/21 11:06:06;;;;;;;6.47;3.47;;;25.30;95.20;;;;;;5025713;28;20022;-59
2022/07/21 11:08:33;;;;;;;5.57;3.15;;;25.40;95.60;;;;;;5026619;28;20033;-59
2022/07/21 11:11:11;;;;;;;6.63;3.10;;;25.20;95.50;;;;;;5019031;28;20026;-58
2022/07/21 11:14:07;;;;;;;6.03;3.17;;;25.30;95.90;;;;;;5023553;28;20368;-59
2022/07/21 11:17:02;;;;;;;4.45;3.55;;;25.00;97.40;;;;;;5026002;28;20091;-55
2022/07/21 11:19:54;;;;;;;6.68;3.83;;;24.70;98.90;;;;;;5027941;28;20684;-55
2022/07/21 11:22:29;;;;;;;6.47;4.47;;;24.10;99.90;;;;;;5023819;28;20550;-54
2022/07/21 11:25:00;;;;;;;4.85;3.67;;;23.50;99.90;;;;;;5021487;28;20469;-57
2022/07/21 11:27:28;;;;;;;5.22;3.45;;;23.20;99.90;;;;;;5019185;28;20030;-56
2022/07/21 11:29:57;;;;;;;5.05;3.50;;;22.90;99.90;;;;;;5029429;28;20037;-56
2022/07/21 11:32:23;;;;;;;4.90;3.67;;;22.80;99.90;;;;;;5021323;28;20091;-58
2022/07/21 11:35:02;;;;;;;5.18;3.50;;;22.90;99.90;;;;;;5025659;28;20113;-58
2022/07/21 11:37:36;;;;;;;8.68;3.58;;;23.20;99.90;;;;;;5030930;28;20029;-56
2022/07/21 11:40:12;;;;;;;5.68;3.63;;;23.40;99.90;;;;;;5029102;28;20863;-57
2022/07/21 11:42:38;;;;;;;8.48;3.85;;;23.70;99.90;;;;;;5023008;28;20554;-58
2022/07/21 11:45:06;;;;;;;5.53;4.18;;;23.80;99.90;;;;;;5019085;28;20109;-58
2022/07/21 11:47:32;;;;;;;6.85;3.33;;;24.00;99.90;;;;;;5016856;28;20104;-55
2022/07/21 11:50:01;;;;;;;7.72;3.83;;;24.00;99.90;;;;;;5022986;28;20037;-57
2022/07/21 11:52:32;;;;;;;9.52;3.90;;;24.00;99.90;;;;;;5031569;28;20029;-58
2022/07/21 11:55:00;;;;;;;5.05;3.47;;;24.30;99.90;;;;;;5021950;28;20101;-58
2022/07/21 11:57:27;;;;;;;5.28;3.42;;;24.50;99.90;;;;;;5025258;28;20022;-57
2022/07/21 11:59:56;;;;;;;7.53;3.63;;;24.80;99.90;;;;;;5027541;28;20025;-58
2022/07/21 12:02:24;;;;;;;8.95;3.92;;;24.80;99.90;;;;;;5031088;28;20844;-58
2022/07/21 12:05:01;;;;;;;7.25;4.25;;;24.60;99.90;;;;;;5024001;28;20079;-59
2022/07/21 12:07:30;;;;;;;6.82;3.80;;;24.30;99.90;;;;;;5027131;28;20021;-58
2022/07/21 12:09:59;;;;;;;7.90;4.93;;;24.10;99.90;;;;;;5024381;28;20387;-58
2022/07/21 12:12:49;;;;;;;9.88;5.78;;;23.70;99.90;;;;;;5031175;28;20028;-59
2022/07/21 12:15:28;;;;;;;8.93;5.70;;;23.10;99.90;;;;;;5015203;28;20048;-58
2022/07/21 12:17:59;;;;;;;8.23;6.30;;;22.50;99.90;;;;;;5026052;28;20036;-59
2022/07/21 12:20:32;;;;;;;10.77;6.72;;;21.80;99.90;;;;;;5028283;28;20061;-55
2022/07/21 12:23:00;;;;;;;11.75;8.38;;;21.20;99.90;;;;;;5021061;28;20413;-58
2022/07/21 12:25:37;;;;;;;10.13;7.07;;;20.80;99.90;;;;;;5013435;28;20084;-58
2022/07/21 12:28:04;;;;;;;14.57;7.20;;;20.50;99.90;;;;;;5039119;22;20029;-58
2022/07/21 12:30:51;;;;;;;10.90;8.32;;;20.40;99.90;;;;;;5012954;28;20419;-60
2022/07/21 12:33:18;;;;;;;14.23;8.00;;;20.10;99.90;;;;;;5017986;28;20017;-59
2022/07/21 12:36:06;;;;;;;10.68;8.52;;;19.90;99.90;;;;;;5018474;28;20021;-59
2022/07/21 12:38:46;;;;;;;15.20;9.65;;;19.80;99.90;;;;;;5017946;28;20509;-57
2022/07/21 12:41:15;;;;;;;14.68;9.07;;;19.60;99.90;;;;;;5023367;28;20450;-59
2022/07/21 12:43:41;;;;;;;11.35;9.30;;;19.60;99.90;;;;;;5020824;28;20541;-60